Time;durP1;ratioP1;P1;durP2;ratioP2;P2;SDS_P1;SDS_P2;PMS_P1;PMS_P2;Temp;Humidity;BMP_temperature;BMP_pressure;BME280_temperature;BME280_humidity;BME280_pressure;Samples;Min_cycle;Max_cycle;Signal;HPM_P1;HPM_P2
2021/12/14 00:01:54;;;;;;;14.93;4.60;;;11.20;99.90;;;;;;5026051;28;20178;-67
2021/12/14 00:04:31;;;;;;;16.03;4.40;;;11.20;99.90;;;;;;5011121;28;20175;-67
2021/12/14 00:07:00;;;;;;;17.97;4.40;;;11.10;99.90;;;;;;5011132;28;20276;-67
2021/12/14 00:09:32;;;;;;;11.53;4.20;;;11.10;99.90;;;;;;5010835;28;20716;-68
2021/12/14 00:17:25;;;;;;;12.30;4.43;;;11.00;99.90;;;;;;5013119;28;20209;-67
2021/12/14 00:19:54;;;;;;;13.00;5.23;;;10.90;99.90;;;;;;5018787;28;20174;-66
2021/12/14 00:22:36;;;;;;;18.70;4.67;;;10.90;99.90;;;;;;5014847;28;20697;-66
2021/12/14 00:25:04;;;;;;;16.10;4.83;;;10.80;99.90;;;;;;5014811;28;20201;-66
2021/12/14 00:27:30;;;;;;;14.60;4.63;;;10.80;99.90;;;;;;5014822;28;20716;-66
2021/12/14 00:30:00;;;;;;;20.13;5.23;;;10.80;99.90;;;;;;5014745;28;20605;-67
2021/12/14 00:32:29;;;;;;;15.63;4.70;;;10.70;99.90;;;;;;5014696;28;20185;-66
2021/12/14 00:34:58;;;;;;;16.53;4.60;;;10.70;99.90;;;;;;5014633;28;20210;-66
2021/12/14 00:37:31;;;;;;;18.83;5.20;;;10.60;99.90;;;;;;5014257;28;20222;-66
2021/12/14 00:40:01;;;;;;;21.83;5.30;;;10.70;99.90;;;;;;5014372;28;20205;-66
2021/12/14 00:42:27;;;;;;;14.00;4.53;;;10.70;99.90;;;;;;5014525;28;20178;-66
2021/12/14 00:44:53;;;;;;;18.73;4.90;;;10.60;99.90;;;;;;5014487;28;20217;-68
2021/12/14 00:47:19;;;;;;;12.37;4.93;;;10.60;99.90;;;;;;5014402;28;20646;-68
2021/12/14 00:49:45;;;;;;;14.80;4.77;;;10.70;99.90;;;;;;5014403;28;20205;-69
2021/12/14 00:52:11;;;;;;;15.20;5.03;;;10.60;99.90;;;;;;5014070;28;20222;-69
2021/12/14 00:54:38;;;;;;;17.83;5.47;;;10.60;99.90;;;;;;4996740;28;20293;-68
2021/12/14 00:57:05;;;;;;;15.23;5.13;;;10.60;99.90;;;;;;5014258;28;20514;-68
2021/12/14 00:59:32;;;;;;;17.60;4.70;;;10.60;99.90;;;;;;5014103;28;20696;-68
2021/12/14 01:02:07;;;;;;;11.63;4.73;;;10.60;99.90;;;;;;5011214;28;20186;-67
2021/12/14 01:04:43;;;;;;;14.63;4.90;;;10.60;99.90;;;;;;5014141;28;20180;-68
2021/12/14 01:07:11;;;;;;;24.70;5.30;;;10.50;99.90;;;;;;5014138;28;20183;-68
2021/12/14 01:09:42;;;;;;;21.10;5.63;;;10.50;99.90;;;;;;5014232;28;20214;-69
2021/12/14 01:12:14;;;;;;;19.07;5.50;;;10.50;99.90;;;;;;5013802;28;20179;-68
2021/12/14 01:17:54;;;;;;;13.80;4.67;;;10.60;99.90;;;;;;5012597;28;20171;-68
2021/12/14 01:20:29;;;;;;;17.70;5.60;;;10.60;99.90;;;;;;5013436;28;20564;-69
2021/12/14 01:23:00;;;;;;;15.80;5.30;;;10.70;99.90;;;;;;5013759;28;20177;-67
2021/12/14 01:25:34;;;;;;;17.10;5.70;;;10.70;99.90;;;;;;5013813;28;20763;-67
2021/12/14 01:28:09;;;;;;;21.10;5.03;;;10.80;99.90;;;;;;5014098;28;20584;-67
2021/12/14 01:30:47;;;;;;;15.50;4.90;;;10.80;99.90;;;;;;5013300;28;20205;-67
2021/12/14 01:33:14;;;;;;;12.37;4.93;;;10.80;99.90;;;;;;5012703;28;20233;-68
2021/12/14 01:35:44;;;;;;;19.30;5.03;;;10.90;99.90;;;;;;5012973;28;20182;-68
2021/12/14 01:38:34;;;;;;;12.30;4.20;;;10.90;99.90;;;;;;5013266;28;20174;-68
2021/12/14 01:41:13;;;;;;;17.90;4.80;;;10.90;99.90;;;;;;5013020;28;20174;-68
2021/12/14 01:43:54;;;;;;;14.13;4.07;;;11.00;99.90;;;;;;5013416;28;20240;-68
2021/12/14 01:46:26;;;;;;;15.60;5.13;;;11.20;99.90;;;;;;5013477;28;20196;-68
2021/12/14 01:48:52;;;;;;;9.43;3.90;;;11.20;99.90;;;;;;5013297;28;20650;-68
2021/12/14 01:51:19;;;;;;;13.70;4.00;;;11.20;99.90;;;;;;5012704;28;20237;-69
2021/12/14 01:53:48;;;;;;;12.27;4.20;;;11.20;99.90;;;;;;5012777;28;20253;-69
2021/12/14 01:56:16;;;;;;;17.17;3.90;;;11.20;99.90;;;;;;5013414;28;20240;-68
2021/12/14 01:58:53;;;;;;;15.83;3.73;;;11.20;99.90;;;;;;5013056;28;20170;-69
2021/12/14 02:01:24;;;;;;;13.87;3.97;;;11.20;99.90;;;;;;5010012;28;20591;-68
2021/12/14 02:04:00;;;;;;;9.23;4.23;;;11.30;99.90;;;;;;5012803;28;20163;-68
2021/12/14 02:06:32;;;;;;;13.30;3.70;;;11.20;99.90;;;;;;5012933;28;20183;-68
2021/12/14 02:09:05;;;;;;;13.40;3.97;;;11.20;99.90;;;;;;5012246;28;20171;-68
2021/12/14 02:11:34;;;;;;;18.13;4.23;;;11.20;99.90;;;;;;5012527;28;20242;-68
2021/12/14 02:14:01;;;;;;;16.63;4.10;;;11.20;99.90;;;;;;5012720;28;20213;-68
2021/12/14 02:16:27;;;;;;;11.63;3.90;;;11.20;99.90;;;;;;5012522;28;20657;-68
2021/12/14 02:19:04;;;;;;;16.27;4.03;;;11.20;99.90;;;;;;5012733;28;20269;-68
2021/12/14 02:21:31;;;;;;;14.73;3.20;;;11.30;99.90;;;;;;5009677;28;20217;-68
2021/12/14 02:24:00;;;;;;;13.90;3.63;;;11.30;99.90;;;;;;5012459;28;20171;-68
2021/12/14 02:26:31;;;;;;;8.87;3.60;;;11.30;99.90;;;;;;5031760;28;20273;-68
2021/12/14 02:28:59;;;;;;;15.53;4.20;;;11.40;99.90;;;;;;5012301;28;20178;-71
2021/12/14 02:31:26;;;;;;;12.53;3.50;;;11.30;99.90;;;;;;5012440;28;20577;-68
2021/12/14 02:33:55;;;;;;;12.27;3.30;;;11.40;99.90;;;;;;5012464;28;20213;-70
2021/12/14 02:36:24;;;;;;;14.23;4.10;;;11.40;99.90;;;;;;5012173;28;20641;-72
2021/12/14 02:39:04;;;;;;;15.77;3.60;;;11.30;99.90;;;;;;5012285;28;20232;-72
2021/12/14 02:41:30;;;;;;;12.30;3.70;;;11.30;99.90;;;;;;5009203;28;20191;-72
2021/12/14 02:43:58;;;;;;;12.37;3.97;;;11.40;99.90;;;;;;5011959;28;20171;-71
2021/12/14 02:46:32;;;;;;;14.73;3.67;;;11.40;99.90;;;;;;5012436;28;20175;-71
2021/12/14 02:49:02;;;;;;;13.47;3.63;;;11.40;99.90;;;;;;5012123;28;20182;-71
2021/12/14 02:51:32;;;;;;;13.10;3.90;;;11.50;99.90;;;;;;5011895;28;20224;-71
2021/12/14 02:54:08;;;;;;;15.97;3.57;;;11.50;99.90;;;;;;5012011;28;20744;-71
2021/12/14 02:56:36;;;;;;;16.40;3.53;;;11.40;99.90;;;;;;5012154;28;20186;-71
2021/12/14 02:59:10;;;;;;;14.00;3.73;;;11.50;99.90;;;;;;5013020;28;20202;-71
2021/12/14 03:01:37;;;;;;;8.97;3.60;;;11.40;99.90;;;;;;5002901;28;20175;-71
2021/12/14 03:04:07;;;;;;;12.60;3.50;;;11.50;99.90;;;;;;5011814;28;20183;-71
2021/12/14 03:06:45;;;;;;;16.03;4.03;;;11.50;99.90;;;;;;5000802;28;20179;-69
2021/12/14 03:09:40;;;;;;;15.30;3.27;;;11.60;99.90;;;;;;5011597;28;20186;-71
2021/12/14 03:12:10;;;;;;;12.63;3.27;;;11.60;99.90;;;;;;5011117;28;20194;-72
2021/12/14 03:14:38;;;;;;;10.13;3.47;;;11.50;99.90;;;;;;5010504;28;20233;-71
2021/12/14 03:17:04;;;;;;;12.53;3.37;;;11.40;99.90;;;;;;5011719;28;20173;-70
2021/12/14 03:19:30;;;;;;;10.33;3.00;;;11.50;99.90;;;;;;5011784;28;20265;-69
2021/12/14 03:21:56;;;;;;;12.63;4.07;;;11.60;99.90;;;;;;5011273;28;20178;-68
2021/12/14 03:24:22;;;;;;;12.00;3.10;;;11.60;99.90;;;;;;5010339;28;20237;-68
2021/12/14 03:26:53;;;;;;;13.23;3.23;;;11.60;99.90;;;;;;5010698;28;20171;-68
2021/12/14 03:29:25;;;;;;;19.00;3.10;;;12.20;99.90;;;;;;5000448;28;20673;-69
2021/12/14 03:31:55;;;;;;;13.70;3.00;;;11.60;99.90;;;;;;5025683;28;20178;-69
2021/12/14 03:34:34;;;;;;;10.63;3.03;;;11.60;99.90;;;;;;5003486;28;20691;-69
2021/12/14 03:37:11;;;;;;;13.77;3.43;;;11.70;99.90;;;;;;5011042;28;20263;-68
2021/12/14 03:39:45;;;;;;;11.73;3.20;;;11.70;99.90;;;;;;5011105;28;20660;-69
2021/12/14 03:42:14;;;;;;;13.57;3.30;;;11.70;99.90;;;;;;5011184;28;20174;-69
2021/12/14 03:44:45;;;;;;;13.97;3.40;;;11.80;99.90;;;;;;5010854;28;20175;-69
2021/12/14 03:47:25;;;;;;;11.30;3.73;;;11.80;99.90;;;;;;5011359;28;20182;-69
2021/12/14 03:49:58;;;;;;;15.87;3.80;;;11.80;99.90;;;;;;5011268;28;20190;-69
2021/12/14 03:52:28;;;;;;;13.43;3.20;;;11.90;99.90;;;;;;5010951;28;20231;-71
2021/12/14 03:54:54;;;;;;;10.27;3.47;;;11.90;99.90;;;;;;5010849;28;20289;-71
2021/12/14 03:57:21;;;;;;;14.27;3.43;;;11.90;99.90;;;;;;5011230;28;20178;-71
2021/12/14 03:59:47;;;;;;;15.93;3.47;;;11.90;99.90;;;;;;5011172;28;20309;-70
2021/12/14 04:02:16;;;;;;;11.03;3.00;;;11.90;99.90;;;;;;5010765;28;20273;-70
2021/12/14 04:05:01;;;;;;;11.50;3.03;;;11.90;99.90;;;;;;5010625;28;20265;-70
2021/12/14 04:07:28;;;;;;;15.40;3.50;;;12.00;99.90;;;;;;5010673;28;20178;-70
2021/12/14 04:09:54;;;;;;;13.90;3.13;;;12.00;99.90;;;;;;5010979;28;20174;-70
2021/12/14 04:12:21;;;;;;;11.43;3.47;;;12.00;99.90;;;;;;5011151;28;20189;-71
2021/12/14 04:14:52;;;;;;;17.00;3.37;;;12.00;99.90;;;;;;5011099;28;20213;-70
2021/12/14 04:17:21;;;;;;;13.73;3.00;;;12.00;99.90;;;;;;5010989;28;20178;-70
2021/12/14 04:19:47;;;;;;;15.03;3.20;;;12.00;99.90;;;;;;5010714;28;20197;-68
2021/12/14 04:22:18;;;;;;;13.63;3.53;;;12.00;99.90;;;;;;5010811;28;20171;-69
2021/12/14 04:24:46;;;;;;;15.03;3.23;;;12.00;99.90;;;;;;5010815;28;20249;-69
2021/12/14 04:27:18;;;;;;;11.43;3.00;;;11.90;99.90;;;;;;5010460;28;20167;-69
2021/12/14 04:29:45;;;;;;;12.37;3.10;;;12.00;99.90;;;;;;5010748;28;20178;-69
2021/12/14 04:32:12;;;;;;;13.50;3.53;;;12.00;99.90;;;;;;5010859;28;20633;-69
2021/12/14 04:34:40;;;;;;;9.77;3.10;;;11.90;99.90;;;;;;5040719;28;20203;-70
2021/12/14 04:37:06;;;;;;;13.27;2.73;;;11.80;99.90;;;;;;5010525;28;20644;-70
2021/12/14 04:39:43;;;;;;;7.97;2.90;;;11.80;99.90;;;;;;5010673;28;20205;-71
2021/12/14 04:51:57;;;;;;;11.30;2.73;;;11.90;99.90;;;;;;5011121;28;20233;-70
2021/12/14 04:54:00;;;;;;;6.17;2.47;;;12.00;99.90;;;;;;5010783;28;20268;-69
2021/12/14 04:56:39;;;;;;;9.87;2.60;;;12.10;99.90;;;;;;5010635;28;20325;-69
2021/12/14 04:59:13;;;;;;;10.77;3.20;;;12.10;99.90;;;;;;5010840;28;20183;-70
2021/12/14 05:01:43;;;;;;;11.50;2.80;;;12.10;99.90;;;;;;5010578;28;20170;-70
2021/12/14 05:04:15;;;;;;;13.83;2.53;;;12.10;99.90;;;;;;5010472;28;20313;-70
2021/12/14 05:07:28;;;;;;;8.67;2.43;;;12.10;99.90;;;;;;5013101;28;20174;-70
2021/12/14 05:09:37;;;;;;;13.63;2.67;;;12.10;99.90;;;;;;5014804;28;20186;-70
2021/12/14 05:12:17;;;;;;;10.27;2.80;;;12.20;99.90;;;;;;5013254;28;20185;-70
2021/12/14 05:14:45;;;;;;;12.63;3.00;;;12.10;99.90;;;;;;5013760;28;20206;-70
2021/12/14 05:17:19;;;;;;;8.97;2.67;;;12.10;99.90;;;;;;5014129;28;20190;-70
2021/12/14 05:19:47;;;;;;;8.57;2.47;;;12.10;99.90;;;;;;5013966;28;20173;-71
2021/12/14 05:22:22;;;;;;;8.87;3.20;;;12.10;99.90;;;;;;5013784;28;20179;-70
2021/12/14 05:24:52;;;;;;;10.53;2.60;;;12.10;99.90;;;;;;5013572;28;20273;-70
2021/12/14 05:27:27;;;;;;;10.13;2.43;;;12.10;99.90;;;;;;5013541;28;20182;-71
2021/12/14 05:29:54;;;;;;;12.53;2.97;;;12.20;99.90;;;;;;5013603;28;20284;-70
2021/12/14 05:32:20;;;;;;;12.47;3.80;;;12.10;99.90;;;;;;5013772;28;20178;-70
2021/12/14 05:34:49;;;;;;;12.10;2.80;;;12.10;99.90;;;;;;5013656;28;20683;-71
2021/12/14 05:37:22;;;;;;;14.33;3.33;;;12.10;99.90;;;;;;5013331;28;20261;-70
2021/12/14 05:45:07;;;;;;;13.37;3.17;;;12.10;99.90;;;;;;5013847;28;20206;-71
2021/12/14 05:47:41;;;;;;;15.70;3.00;;;12.10;99.90;;;;;;5013621;28;20174;-69
2021/12/14 05:50:08;;;;;;;9.17;2.63;;;12.20;99.90;;;;;;5013507;28;20727;-69
2021/12/14 05:52:33;;;;;;;14.53;2.80;;;12.20;99.90;;;;;;5013117;28;20222;-68
2021/12/14 05:54:59;;;;;;;15.23;3.53;;;12.20;99.90;;;;;;5013090;28;20214;-70
2021/12/14 05:57:26;;;;;;;10.03;2.87;;;12.20;99.90;;;;;;5013278;28;20167;-70
2021/12/14 05:59:54;;;;;;;10.00;2.53;;;12.20;99.90;;;;;;5013231;28;20178;-69
2021/12/14 06:02:22;;;;;;;11.67;3.07;;;12.20;99.90;;;;;;5002090;28;20177;-68
2021/12/14 06:04:50;;;;;;;15.73;2.70;;;12.20;99.90;;;;;;5012891;28;20265;-69
2021/12/14 06:07:17;;;;;;;8.73;2.70;;;12.10;99.90;;;;;;5012766;28;20186;-69
2021/12/14 06:09:47;;;;;;;7.93;2.43;;;12.20;99.90;;;;;;5012854;28;20198;-69
2021/12/14 06:12:20;;;;;;;11.40;2.60;;;12.20;99.90;;;;;;5012824;28;20181;-68
2021/12/14 06:14:55;;;;;;;12.40;2.37;;;12.20;99.90;;;;;;5012696;28;20273;-68
2021/12/14 06:17:34;;;;;;;10.53;2.50;;;12.20;99.90;;;;;;4996074;28;20596;-69
2021/12/14 06:20:02;;;;;;;11.03;2.50;;;12.10;99.90;;;;;;5012710;28;20178;-68
2021/12/14 06:22:27;;;;;;;7.47;2.10;;;12.10;99.90;;;;;;5012559;28;20209;-68
2021/12/14 06:25:01;;;;;;;7.83;2.37;;;12.10;99.90;;;;;;5012701;28;20210;-68
2021/12/14 06:27:30;;;;;;;7.93;2.40;;;12.20;99.90;;;;;;5012740;28;20209;-68
2021/12/14 06:30:08;;;;;;;10.10;2.33;;;12.10;99.90;;;;;;5012518;28;20174;-68
2021/12/14 06:32:49;;;;;;;7.57;2.23;;;12.10;99.90;;;;;;5012041;28;20178;-68
2021/12/14 06:35:22;;;;;;;9.27;2.33;;;12.10;99.90;;;;;;5012475;28;20237;-68
2021/12/14 06:41:03;;;;;;;10.87;2.37;;;12.00;99.90;;;;;;5012102;28;20220;-68
2021/12/14 06:43:32;;;;;;;10.37;2.50;;;12.00;99.90;;;;;;5012103;28;20177;-68
2021/12/14 06:46:03;;;;;;;9.27;2.60;;;12.00;99.90;;;;;;5012478;28;20171;-67
2021/12/14 06:48:34;;;;;;;10.60;2.43;;;12.00;99.90;;;;;;5012414;28;20261;-67
2021/12/14 06:51:37;;;;;;;8.60;2.80;;;11.90;99.90;;;;;;5012182;28;20226;-68
2021/12/14 06:54:18;;;;;;;10.73;2.77;;;11.90;99.90;;;;;;4970619;28;20207;-67
2021/12/14 06:56:49;;;;;;;17.47;3.40;;;11.90;99.90;;;;;;5007316;28;20186;-67
2021/12/14 06:59:16;;;;;;;14.73;3.30;;;11.90;99.90;;;;;;5011935;28;20210;-68
2021/12/14 07:01:54;;;;;;;11.97;3.10;;;11.90;99.90;;;;;;5011453;28;20261;-68
2021/12/14 07:04:31;;;;;;;8.57;2.87;;;11.90;99.90;;;;;;5012156;28;20210;-68
2021/12/14 07:06:59;;;;;;;9.87;2.90;;;11.90;99.90;;;;;;5011932;28;20178;-70
2021/12/14 07:09:33;;;;;;;12.23;3.33;;;12.00;99.90;;;;;;5011728;28;20212;-69
2021/12/14 07:12:04;;;;;;;11.97;3.07;;;11.90;99.90;;;;;;5012266;28;20193;-70
2021/12/14 07:14:36;;;;;;;11.07;3.17;;;11.90;99.90;;;;;;5025477;28;20236;-70
2021/12/14 07:17:17;;;;;;;12.10;3.27;;;11.90;99.90;;;;;;5004056;28;20206;-70
2021/12/14 07:19:56;;;;;;;7.43;3.27;;;11.90;99.90;;;;;;5011447;28;20629;-70
2021/12/14 07:22:26;;;;;;;14.93;3.53;;;11.90;99.90;;;;;;5006561;28;20190;-69
2021/12/14 07:25:05;;;;;;;11.63;3.17;;;11.90;99.90;;;;;;5011548;28;20225;-70
2021/12/14 07:27:35;;;;;;;10.50;3.03;;;11.90;99.90;;;;;;5011407;28;20181;-69
2021/12/14 07:30:49;;;;;;;7.60;2.70;;;11.90;99.90;;;;;;5011266;28;20257;-69
2021/12/14 07:33:23;;;;;;;14.10;3.57;;;11.80;99.90;;;;;;4998566;28;20277;-70
2021/12/14 07:35:48;;;;;;;11.70;3.10;;;11.70;99.90;;;;;;5011630;28;20178;-69
2021/12/14 07:38:33;;;;;;;14.47;3.00;;;11.80;99.90;;;;;;5011180;28;20185;-69
2021/12/14 07:41:17;;;;;;;10.70;2.90;;;11.80;99.90;;;;;;5004731;28;20488;-69
2021/12/14 07:43:57;;;;;;;8.77;2.80;;;11.80;99.90;;;;;;5009734;28;20257;-70
2021/12/14 07:46:25;;;;;;;11.53;3.23;;;11.70;99.90;;;;;;5011098;28;20178;-70
2021/12/14 07:48:59;;;;;;;12.17;3.37;;;11.70;99.90;;;;;;5011272;28;20175;-69
2021/12/14 07:51:27;;;;;;;11.97;3.00;;;11.70;99.90;;;;;;5010853;28;20222;-70
2021/12/14 07:54:04;;;;;;;8.03;2.73;;;11.70;99.90;;;;;;5011119;28;20210;-69
2021/12/14 07:56:41;;;;;;;10.63;3.30;;;11.70;99.90;;;;;;5010950;28;20178;-70
2021/12/14 07:59:19;;;;;;;11.63;3.40;;;11.60;99.90;;;;;;5010127;28;20182;-70
2021/12/14 08:01:46;;;;;;;15.90;3.40;;;11.60;99.90;;;;;;5010129;28;20221;-70
2021/12/14 08:04:13;;;;;;;9.27;3.57;;;11.50;99.90;;;;;;5010926;28;20656;-68
2021/12/14 08:06:50;;;;;;;14.37;3.30;;;11.60;99.90;;;;;;5010624;28;20208;-68
2021/12/14 08:09:32;;;;;;;13.17;3.67;;;11.50;99.90;;;;;;5010578;28;20181;-68
2021/12/14 08:12:00;;;;;;;8.27;3.07;;;11.50;99.90;;;;;;5001414;28;20597;-65
2021/12/14 08:14:28;;;;;;;9.10;3.17;;;11.50;99.90;;;;;;5010225;28;20217;-66
2021/12/14 08:17:08;;;;;;;9.83;3.60;;;11.60;99.90;;;;;;5012329;28;20174;-67
2021/12/14 08:19:36;;;;;;;11.97;3.80;;;11.60;99.90;;;;;;5011116;28;20636;-70
2021/12/14 08:22:08;;;;;;;10.90;3.30;;;11.60;99.90;;;;;;5010717;28;20641;-66
2021/12/14 08:24:34;;;;;;;10.73;3.53;;;11.60;99.90;;;;;;5010228;28;20181;-71
2021/12/14 08:27:02;;;;;;;9.70;3.17;;;11.60;99.90;;;;;;5012276;28;20628;-66
2021/12/14 08:29:31;;;;;;;13.40;3.80;;;11.60;99.90;;;;;;5009246;28;20174;-66
2021/12/14 08:32:03;;;;;;;17.80;3.40;;;11.60;99.90;;;;;;5010682;28;20204;-66
2021/12/14 08:34:33;;;;;;;13.20;3.97;;;11.60;99.90;;;;;;4991026;28;20222;-67
2021/12/14 08:37:25;;;;;;;15.13;3.97;;;11.60;99.90;;;;;;4990819;28;20180;-67
2021/12/14 08:39:58;;;;;;;11.57;3.70;;;11.60;99.90;;;;;;4989819;28;20191;-67
2021/12/14 08:42:33;;;;;;;12.10;3.93;;;11.60;99.90;;;;;;5015628;28;20174;-71
2021/12/14 08:45:01;;;;;;;13.63;3.30;;;11.60;99.90;;;;;;5004301;28;20632;-69
2021/12/14 08:47:31;;;;;;;12.10;3.73;;;11.70;99.90;;;;;;5014264;28;20170;-70
2021/12/14 08:50:00;;;;;;;13.17;3.53;;;11.70;99.90;;;;;;5014386;28;20183;-69
2021/12/14 08:52:28;;;;;;;18.30;3.80;;;11.80;99.90;;;;;;5014315;28;20222;-70
2021/12/14 08:54:54;;;;;;;15.50;3.27;;;11.90;99.90;;;;;;5016163;28;20563;-69
2021/12/14 08:57:25;;;;;;;12.03;3.57;;;11.90;99.90;;;;;;5013926;28;20170;-70
2021/12/14 08:59:55;;;;;;;12.37;3.17;;;11.90;99.90;;;;;;5013973;28;20202;-72
2021/12/14 09:02:23;;;;;;;9.90;3.27;;;11.90;99.90;;;;;;5014320;28;20221;-70
2021/12/14 09:04:58;;;;;;;8.23;3.33;;;11.90;99.90;;;;;;5014278;28;20179;-72
2021/12/14 09:07:28;;;;;;;17.50;3.40;;;12.00;99.90;;;;;;5013760;28;20162;-69
2021/12/14 09:09:56;;;;;;;10.30;3.10;;;12.00;99.90;;;;;;5013746;28;20660;-70
2021/12/14 09:12:28;;;;;;;12.63;3.10;;;12.10;99.90;;;;;;5013930;28;20181;-69
2021/12/14 09:14:57;;;;;;;11.97;3.23;;;12.10;99.90;;;;;;5013875;28;20210;-69
2021/12/14 09:17:24;;;;;;;11.23;3.10;;;12.10;99.90;;;;;;5018653;28;20695;-72
2021/12/14 09:19:55;;;;;;;9.60;3.27;;;12.10;99.90;;;;;;5012911;28;20179;-67
2021/12/14 09:22:34;;;;;;;11.73;3.10;;;12.10;99.90;;;;;;4976664;28;20176;-68
2021/12/14 09:25:04;;;;;;;14.07;3.40;;;12.20;99.90;;;;;;5012982;28;20170;-67
2021/12/14 09:27:34;;;;;;;11.80;3.30;;;12.20;99.90;;;;;;5012806;28;20198;-66
2021/12/14 09:30:00;;;;;;;14.60;3.17;;;12.20;99.90;;;;;;5013617;28;20633;-69
2021/12/14 09:32:28;;;;;;;11.10;3.67;;;12.20;99.90;;;;;;5013812;28;20229;-65
2021/12/14 09:35:00;;;;;;;9.13;3.20;;;12.20;99.90;;;;;;5012420;28;20303;-68
2021/12/14 09:37:28;;;;;;;8.87;3.03;;;12.30;99.90;;;;;;5013058;28;20175;-69
2021/12/14 09:40:03;;;;;;;10.03;3.03;;;12.40;99.90;;;;;;5012897;28;20225;-67
2021/12/14 09:42:33;;;;;;;10.17;3.50;;;12.40;99.90;;;;;;5012702;28;20266;-65
2021/12/14 09:45:09;;;;;;;11.07;2.90;;;12.40;99.90;;;;;;5013144;28;20597;-69
2021/12/14 09:47:35;;;;;;;17.00;3.00;;;12.40;99.90;;;;;;5013342;28;20269;-69
2021/12/14 09:50:07;;;;;;;13.07;3.47;;;12.40;99.90;;;;;;5013154;28;20694;-65
2021/12/14 09:52:36;;;;;;;10.50;3.30;;;12.40;99.90;;;;;;5011374;28;20222;-64
2021/12/14 09:55:09;;;;;;;11.23;2.93;;;12.40;99.90;;;;;;5009586;28;20206;-66
2021/12/14 09:57:40;;;;;;;12.23;3.23;;;12.40;99.90;;;;;;5012550;28;20201;-67
2021/12/14 10:00:30;;;;;;;9.67;3.53;;;12.40;99.90;;;;;;5012299;28;20182;-67
2021/12/14 10:03:00;;;;;;;10.93;3.23;;;12.40;99.90;;;;;;5002668;28;20205;-67
2021/12/14 10:05:38;;;;;;;9.70;3.03;;;12.40;99.90;;;;;;5012706;28;20258;-67
2021/12/14 10:08:14;;;;;;;10.43;3.23;;;12.40;99.90;;;;;;5012776;28;20645;-67
2021/12/14 10:11:05;;;;;;;11.83;3.33;;;12.40;99.90;;;;;;5012957;28;20653;-67
2021/12/14 10:13:34;;;;;;;9.03;3.33;;;12.40;99.90;;;;;;5010416;28;20210;-67
2021/12/14 10:16:03;;;;;;;14.00;3.30;;;12.40;99.90;;;;;;5012368;28;20178;-67
2021/12/14 10:18:40;;;;;;;11.47;3.27;;;12.30;99.90;;;;;;5012187;28;20258;-67
2021/12/14 10:21:13;;;;;;;12.47;3.30;;;12.30;99.90;;;;;;5012416;28;20170;-67
2021/12/14 10:23:45;;;;;;;8.40;3.10;;;12.30;99.90;;;;;;5011763;28;20175;-68
2021/12/14 10:26:12;;;;;;;12.90;3.60;;;12.30;99.90;;;;;;5012287;28;20175;-66
2021/12/14 10:28:41;;;;;;;7.77;3.40;;;12.30;99.90;;;;;;5016190;28;20698;-67
2021/12/14 10:31:20;;;;;;;14.77;4.20;;;12.20;99.90;;;;;;5004482;28;20175;-68
2021/12/14 10:33:46;;;;;;;13.83;4.07;;;12.20;99.90;;;;;;5022050;28;20244;-67
2021/12/14 10:36:27;;;;;;;11.70;3.87;;;12.20;99.90;;;;;;5011962;28;20185;-67
2021/12/14 10:39:41;;;;;;;10.03;3.93;;;12.10;99.90;;;;;;5019306;28;20174;-68
2021/12/14 10:44:32;;;;;;;15.73;4.07;;;12.10;99.90;;;;;;5012459;28;20501;-68
2021/12/14 10:46:59;;;;;;;14.23;4.70;;;12.00;99.90;;;;;;5011376;28;20178;-68
2021/12/14 10:49:26;;;;;;;9.97;4.30;;;12.00;99.90;;;;;;5011938;28;20186;-68
2021/12/14 10:51:59;;;;;;;14.27;4.70;;;12.00;99.90;;;;;;5011977;28;20222;-68
2021/12/14 10:54:27;;;;;;;13.40;5.00;;;12.00;99.90;;;;;;5012144;28;20268;-67
2021/12/14 10:56:53;;;;;;;15.27;5.03;;;12.10;99.90;;;;;;5011789;28;20250;-69
2021/12/14 10:59:22;;;;;;;13.33;4.50;;;12.10;99.90;;;;;;5010926;28;20599;-68
2021/12/14 11:01:50;;;;;;;14.13;5.07;;;12.10;99.90;;;;;;5011702;28;20170;-68
2021/12/14 11:04:23;;;;;;;9.33;4.43;;;12.10;99.90;;;;;;5011124;28;20178;-67
2021/12/14 11:06:52;;;;;;;13.90;5.20;;;12.10;99.90;;;;;;5011312;28;20657;-68
2021/12/14 11:09:41;;;;;;;14.57;4.60;;;12.10;99.90;;;;;;5010667;28;20174;-67
2021/12/14 11:12:23;;;;;;;18.80;4.33;;;12.20;99.90;;;;;;5011689;28;20170;-67
2021/12/14 11:14:53;;;;;;;11.10;4.10;;;12.20;99.90;;;;;;5011596;28;20218;-68
2021/12/14 11:20:15;;;;;;;14.50;4.57;;;12.30;99.90;;;;;;5009427;28;20552;-68
2021/12/14 11:23:00;;;;;;;14.70;4.40;;;12.30;99.90;;;;;;5001230;28;20182;-68
2021/12/14 11:25:28;;;;;;;10.37;4.00;;;12.30;99.90;;;;;;5011631;28;20179;-68
2021/12/14 11:28:00;;;;;;;14.87;4.37;;;12.30;99.90;;;;;;5010530;28;20286;-69
2021/12/14 11:30:36;;;;;;;9.07;4.47;;;12.30;99.90;;;;;;5007259;28;20277;-67
2021/12/14 11:33:08;;;;;;;13.80;4.33;;;12.30;99.90;;;;;;4992176;28;20179;-68
2021/12/14 11:35:40;;;;;;;10.60;4.30;;;12.30;99.90;;;;;;5012056;28;20227;-68
2021/12/14 11:38:21;;;;;;;10.13;4.27;;;12.30;99.90;;;;;;5011126;28;20186;-67
2021/12/14 11:40:47;;;;;;;11.90;4.80;;;12.30;99.90;;;;;;5014767;28;20646;-68
2021/12/14 11:43:19;;;;;;;9.40;4.53;;;12.30;99.90;;;;;;5011501;28;20175;-67
2021/12/14 11:45:47;;;;;;;12.23;4.47;;;12.30;99.90;;;;;;5010908;28;20181;-68
2021/12/14 11:48:15;;;;;;;13.77;4.47;;;12.30;99.90;;;;;;5010867;28;20182;-68
2021/12/14 11:50:47;;;;;;;16.53;5.03;;;12.40;99.90;;;;;;5011103;28;20214;-68
2021/12/14 11:53:20;;;;;;;11.63;4.73;;;12.30;99.90;;;;;;5010979;28;20182;-68
2021/12/14 11:55:50;;;;;;;13.40;5.23;;;12.30;99.90;;;;;;5010522;28;20190;-68
2021/12/14 11:58:36;;;;;;;13.57;5.43;;;12.30;99.90;;;;;;5010169;28;20188;-68
2021/12/14 12:01:01;;;;;;;19.47;6.13;;;12.40;99.90;;;;;;5010254;28;20170;-68
2021/12/14 12:03:33;;;;;;;20.33;5.77;;;12.40;99.90;;;;;;5025045;28;20181;-68
2021/12/14 12:09:28;;;;;;;14.93;5.50;;;12.40;99.90;;;;;;5010369;28;20170;-68
2021/12/14 12:09:32;;;;;;;12.70;5.60;;;12.40;99.90;;;;;;5008619;28;20261;-68
2021/12/14 12:12:04;;;;;;;13.67;5.87;;;12.40;99.90;;;;;;4998104;28;20642;-68
2021/12/14 12:14:53;;;;;;;16.37;5.10;;;12.20;99.90;;;;;;5006739;28;20706;-67
2021/12/14 12:17:46;;;;;;;13.47;5.30;;;12.40;99.90;;;;;;5001379;28;20173;-68
2021/12/14 12:20:20;;;;;;;15.27;5.70;;;12.40;99.90;;;;;;5010337;28;20273;-67
2021/12/14 12:22:50;;;;;;;12.90;5.57;;;12.40;99.90;;;;;;5010355;28;20166;-68
2021/12/14 12:25:36;;;;;;;16.43;4.97;;;12.40;99.90;;;;;;5010612;28;20200;-69
2021/12/14 12:28:07;;;;;;;9.57;5.50;;;12.40;99.90;;;;;;5010870;28;20637;-68
2021/12/14 12:30:50;;;;;;;14.67;4.60;;;12.40;99.90;;;;;;5010261;28;20174;-68
2021/12/14 12:33:25;;;;;;;11.57;4.03;;;12.30;99.90;;;;;;5010915;28;20186;-67
2021/12/14 12:36:06;;;;;;;10.20;4.10;;;12.40;99.90;;;;;;5010320;28;20211;-67
2021/12/14 12:38:34;;;;;;;8.00;4.03;;;12.30;99.90;;;;;;5025297;28;20188;-68
2021/12/14 12:41:27;;;;;;;10.63;3.83;;;12.40;99.90;;;;;;5010298;28;20179;-69
2021/12/14 12:43:55;;;;;;;11.30;4.43;;;12.30;99.90;;;;;;4995320;28;20198;-70
2021/12/14 12:46:28;;;;;;;8.50;4.13;;;12.30;99.90;;;;;;5010481;28;20182;-70
2021/12/14 12:49:09;;;;;;;9.20;3.77;;;12.40;99.90;;;;;;5010699;28;20257;-69
2021/12/14 12:51:41;;;;;;;12.30;4.03;;;12.40;99.90;;;;;;5010184;28;20261;-69
2021/12/14 12:54:18;;;;;;;12.87;3.77;;;12.50;99.90;;;;;;5004781;28;20297;-69
2021/12/14 12:56:49;;;;;;;8.30;3.90;;;12.60;99.90;;;;;;4991780;28;20214;-69
2021/12/14 12:59:36;;;;;;;10.57;3.87;;;12.60;99.90;;;;;;4995290;28;20261;-70
2021/12/14 13:02:30;;;;;;;12.70;3.70;;;12.70;99.90;;;;;;5010319;28;20238;-70
2021/12/14 13:05:06;;;;;;;9.30;3.90;;;12.60;99.90;;;;;;5005426;28;20191;-70
2021/12/14 13:07:41;;;;;;;8.60;3.73;;;12.60;99.90;;;;;;4990571;28;20233;-70
2021/12/14 13:10:26;;;;;;;13.07;3.90;;;12.60;99.90;;;;;;4990596;28;20174;-71
2021/12/14 13:13:10;;;;;;;8.73;3.53;;;12.60;99.90;;;;;;5007553;28;20563;-69
2021/12/14 13:15:45;;;;;;;6.97;3.43;;;12.60;99.90;;;;;;5010929;28;20799;-68
2021/12/14 13:18:32;;;;;;;6.90;3.37;;;12.60;99.90;;;;;;5010242;28;20187;-69
2021/12/14 13:21:04;;;;;;;9.53;3.87;;;12.50;99.90;;;;;;5009482;28;20194;-69
2021/12/14 13:23:47;;;;;;;10.67;3.50;;;12.50;99.90;;;;;;5010358;28;20197;-69
2021/12/14 13:26:29;;;;;;;7.57;3.57;;;12.60;99.90;;;;;;5010557;28;20178;-69
2021/12/14 13:29:34;;;;;;;9.57;3.10;;;12.60;99.90;;;;;;5013338;28;20179;-70
2021/12/14 13:32:14;;;;;;;9.20;3.03;;;12.60;99.90;;;;;;5012329;28;20183;-70
2021/12/14 13:34:49;;;;;;;6.03;3.07;;;12.60;99.90;;;;;;5013020;28;20221;-70
2021/12/14 13:37:22;;;;;;;7.17;3.10;;;12.70;99.90;;;;;;5012239;28;20253;-70
2021/12/14 13:39:50;;;;;;;7.10;3.33;;;12.80;99.90;;;;;;4994080;28;20725;-70